Worcester, MA

12:43 PM EDT on August 24, 2016 (GMT -0400)
Elm Park | | Change Station

Elev 509 ft 42.27 °N, 71.81 °W | Updated 11 seconds ago

Clear
Clear
81.5 °F
Feels Like 82 °F
N
1.1
Wind Variable Wind from WSW
Gusts 2.5 mph

Today
High -- | Low -- °F
--% Chance of Precip.
Yesterday
High -- | Low -- °F
Precip. -- in
Pressure 30.26 in
Visibility 10.0 miles
Clouds Clear
Heat Index 82 °F
Dew Point 58 °F
Humidity 45%
Rainfall 0.00 in
Snow Depth Not available.
6:04 AM 7:33 PM
Waning Gibbous, 55% visible
METAR KORH 241554Z 24007KT 10SM CLR 24/14 A3027 RMK AO2 SLP246 T02440139
Pressure 30.26 in
Visibility 10.0 miles
Clouds Clear
Heat Index 82 °F
Dew Point 58 °F
Humidity 45%
Rainfall 0.00 in
Snow Depth Not available.
6:04 AM 7:33 PM
Waning Gibbous, 55% visible
METAR KORH 241554Z 24007KT 10SM CLR 24/14 A3027 RMK AO2 SLP246 T02440139

10-Day Weather Forecast

Almanac

Astronomy

Aug. 24, 2016 Rise Set
Actual Time
Civil Twilight
Nautical Twilight
Astronomical Twilight
Moon
Length of Visible Light
Length of Day
Tomorrow will be .
, % of the Moon is Illuminated

Today's Extremes

State Highs State Lows

Community

WunderPhotos

Upload Photos

1,934,652 photos uploaded!

WunderBlog® & News

Nearby

Air Quality

  Air Quality AQ Index Pollutant
Not available.

Snow Depth

Station Depth Elevation

Earthquake Activity

City Distance Mag. Time & Date
Minimum magnitude displayed is 2.5.

Coastal Water Temperatures

Place Temperature

Stations

Nearby Weather Stations

Station Location Temp. Windchill Dew Point Humidity Wind Precip. Elev Updated Type
                   

Watches & Warnings

There are currently no watches in effect.